PDT6124 KPHL-KPWM
Flight info
| Callsign | PDT6124 |
|---|---|
| Flight time | 1h 1m |
| Altitude | 17000 |
| Route | DITCH T416 JIMEE/N0447F310 WAVEY SHIPP CCC SCOGS3 |
| Aircraft | E145/M-SABDFGRW/S |
Departure
| Time | 2026-05-05 02:38 |
|---|---|
| Airport | Philadelphia International Airport (KPHL) |
Arrival
| Time | 2026-05-05 03:39 |
|---|---|
| Airport | Portland International Jetport (KPWM) |
| Time | Latitude | Longitude | Altitude | Speed | Heading |
|---|---|---|---|---|---|
| 2026-05-05 02:23 | 39.88000 | -75.23545 | 16 ft | 0 kts | 301° |
| 2026-05-05 02:29 | 39.87994 | -75.23459 | 16 ft | 0 kts | 178° |
| 2026-05-05 02:33 | 39.87990 | -75.23457 | 16 ft | 1 kts | 164° |
| 2026-05-05 02:33 | 39.87973 | -75.23450 | 17 ft | 3 kts | 162° |
| 2026-05-05 02:33 | 39.87933 | -75.23437 | 16 ft | 8 kts | 167° |
| 2026-05-05 02:34 | 39.87868 | -75.23428 | 16 ft | 9 kts | 168° |
| 2026-05-05 02:34 | 39.87786 | -75.23402 | 16 ft | 14 kts | 156° |
| 2026-05-05 02:34 | 39.87690 | -75.23354 | 14 ft | 15 kts | 160° |
| 2026-05-05 02:34 | 39.87577 | -75.23303 | 15 ft | 18 kts | 157° |
| 2026-05-05 02:35 | 39.87453 | -75.23237 | 16 ft | 20 kts | 159° |
| 2026-05-05 02:35 | 39.87311 | -75.23169 | 17 ft | 23 kts | 160° |
| 2026-05-05 02:35 | 39.87172 | -75.23102 | 15 ft | 18 kts | 161° |
| 2026-05-05 02:35 | 39.87098 | -75.23181 | 16 ft | 14 kts | 221° |
| 2026-05-05 02:36 | 39.87042 | -75.23296 | 16 ft | 16 kts | 246° |
| 2026-05-05 02:36 | 39.86978 | -75.23415 | 15 ft | 17 kts | 175° |
| 2026-05-05 02:36 | 39.86900 | -75.23424 | 15 ft | 2 kts | 246° |
| 2026-05-05 02:36 | 39.86899 | -75.23427 | 15 ft | 0 kts | 252° |
| 2026-05-05 02:37 | 39.86898 | -75.23432 | 15 ft | 1 kts | 252° |
| 2026-05-05 02:37 | 39.86842 | -75.23700 | 16 ft | 65 kts | 256° |
| 2026-05-05 02:37 | 39.86679 | -75.24529 | 18 ft | 122 kts | 255° |
| 2026-05-05 02:38 | 39.86453 | -75.25681 | 275 ft | 132 kts | 252° |
| 2026-05-05 02:38 | 39.86250 | -75.26849 | 717 ft | 135 kts | 253° |
| 2026-05-05 02:38 | 39.86077 | -75.28028 | 1215 ft | 136 kts | 253° |
| 2026-05-05 02:38 | 39.85883 | -75.29398 | 1287 ft | 172 kts | 253° |
| 2026-05-05 02:39 | 39.85607 | -75.31131 | 1296 ft | 218 kts | 253° |
| 2026-05-05 02:39 | 39.85266 | -75.33141 | 1860 ft | 233 kts | 254° |
| 2026-05-05 02:39 | 39.84920 | -75.35143 | 2822 ft | 226 kts | 254° |
| 2026-05-05 02:39 | 39.84541 | -75.37099 | 3657 ft | 224 kts | 254° |
| 2026-05-05 02:40 | 39.84130 | -75.39068 | 4332 ft | 229 kts | 250° |
| 2026-05-05 02:40 | 39.83207 | -75.40729 | 4947 ft | 236 kts | 218° |
| 2026-05-05 02:40 | 39.81633 | -75.41411 | 5630 ft | 249 kts | 186° |
| 2026-05-05 02:40 | 39.79912 | -75.40816 | 6263 ft | 268 kts | 154° |
| 2026-05-05 02:41 | 39.78594 | -75.39044 | 6860 ft | 285 kts | 122° |
| 2026-05-05 02:41 | 39.78090 | -75.36555 | 7471 ft | 294 kts | 91° |
| 2026-05-05 02:41 | 39.78578 | -75.33972 | 8115 ft | 295 kts | 61° |
| 2026-05-05 02:41 | 39.79180 | -75.31467 | 8764 ft | 297 kts | 78° |
| 2026-05-05 02:42 | 39.79309 | -75.28775 | 9433 ft | 299 kts | 90° |
| 2026-05-05 02:42 | 39.79369 | -75.26062 | 10006 ft | 303 kts | 88° |
| 2026-05-05 02:42 | 39.79387 | -75.23343 | 10536 ft | 308 kts | 89° |
| 2026-05-05 02:42 | 39.79396 | -75.20470 | 10652 ft | 330 kts | 89° |
| 2026-05-05 02:43 | 39.79402 | -75.17381 | 10862 ft | 345 kts | 89° |
| 2026-05-05 02:43 | 39.79406 | -75.14269 | 11503 ft | 344 kts | 89° |
| 2026-05-05 02:43 | 39.79410 | -75.11159 | 11959 ft | 351 kts | 89° |
| 2026-05-05 02:43 | 39.79413 | -75.07856 | 12003 ft | 370 kts | 89° |
| 2026-05-05 02:44 | 39.79415 | -75.04470 | 12017 ft | 382 kts | 89° |
| 2026-05-05 02:44 | 39.79416 | -75.00939 | 12006 ft | 390 kts | 89° |
| 2026-05-05 02:44 | 39.79417 | -74.97650 | 12005 ft | 396 kts | 89° |
| 2026-05-05 02:44 | 39.79416 | -74.93944 | 12004 ft | 394 kts | 89° |
| 2026-05-05 02:45 | 39.79413 | -74.90373 | 12005 ft | 390 kts | 89° |
| 2026-05-05 02:45 | 39.79411 | -74.86848 | 12011 ft | 388 kts | 89° |
| 2026-05-05 02:45 | 39.79406 | -74.83370 | 12177 ft | 391 kts | 89° |
| 2026-05-05 02:45 | 39.79401 | -74.80025 | 13773 ft | 356 kts | 89° |
| 2026-05-05 02:46 | 39.79396 | -74.76881 | 14587 ft | 351 kts | 89° |
| 2026-05-05 02:46 | 39.79390 | -74.73664 | 14929 ft | 360 kts | 90° |
| 2026-05-05 02:46 | 39.79480 | -74.70381 | 15404 ft | 362 kts | 83° |
| 2026-05-05 02:46 | 39.79768 | -74.67076 | 15905 ft | 364 kts | 83° |
| 2026-05-05 02:47 | 39.80042 | -74.63782 | 16316 ft | 368 kts | 83° |
| 2026-05-05 02:47 | 39.80317 | -74.60467 | 16807 ft | 370 kts | 83° |
| 2026-05-05 02:47 | 39.80595 | -74.57099 | 17263 ft | 373 kts | 83° |
| 2026-05-05 02:47 | 39.80875 | -74.53705 | 17697 ft | 376 kts | 83° |
| 2026-05-05 02:48 | 39.81148 | -74.50359 | 18107 ft | 379 kts | 83° |
| 2026-05-05 02:48 | 39.81427 | -74.46945 | 18552 ft | 380 kts | 83° |
| 2026-05-05 02:48 | 39.81701 | -74.43474 | 19009 ft | 382 kts | 85° |
| 2026-05-05 02:48 | 39.81735 | -74.40045 | 19452 ft | 384 kts | 89° |
| 2026-05-05 02:49 | 39.81732 | -74.36443 | 19826 ft | 387 kts | 89° |
| 2026-05-05 02:49 | 39.81729 | -74.33289 | 20215 ft | 388 kts | 89° |
| 2026-05-05 02:49 | 39.81724 | -74.29527 | 20679 ft | 389 kts | 89° |
| 2026-05-05 02:49 | 39.81719 | -74.25972 | 21042 ft | 392 kts | 89° |
| 2026-05-05 02:50 | 39.81714 | -74.22380 | 21413 ft | 394 kts | 89° |
| 2026-05-05 02:50 | 39.81707 | -74.18824 | 21810 ft | 396 kts | 89° |
| 2026-05-05 02:50 | 39.82139 | -74.15304 | 22163 ft | 393 kts | 68° |
| 2026-05-05 02:50 | 39.83445 | -74.12231 | 22522 ft | 389 kts | 51° |
| 2026-05-05 02:51 | 39.85047 | -74.09369 | 22883 ft | 391 kts | 51° |
| 2026-05-05 02:51 | 39.86634 | -74.06511 | 23262 ft | 392 kts | 51° |
| 2026-05-05 02:51 | 39.88240 | -74.03616 | 23621 ft | 393 kts | 51° |
| 2026-05-05 02:51 | 39.89858 | -74.00696 | 23976 ft | 395 kts | 51° |
| 2026-05-05 02:52 | 39.91470 | -73.97785 | 24319 ft | 397 kts | 51° |
| 2026-05-05 02:52 | 39.93079 | -73.94876 | 24666 ft | 398 kts | 51° |
| 2026-05-05 02:52 | 39.94721 | -73.91905 | 25001 ft | 400 kts | 51° |
| 2026-05-05 02:52 | 39.96343 | -73.88969 | 25341 ft | 401 kts | 51° |
| 2026-05-05 02:53 | 39.97971 | -73.86017 | 25754 ft | 401 kts | 51° |
| 2026-05-05 02:53 | 39.99591 | -73.83076 | 26187 ft | 399 kts | 51° |
| 2026-05-05 02:53 | 40.01224 | -73.80112 | 26643 ft | 398 kts | 51° |
| 2026-05-05 02:53 | 40.02855 | -73.77145 | 27081 ft | 397 kts | 51° |
| 2026-05-05 02:54 | 40.04477 | -73.74194 | 27471 ft | 397 kts | 51° |
| 2026-05-05 02:54 | 40.06117 | -73.71207 | 27906 ft | 395 kts | 51° |
| 2026-05-05 02:54 | 40.07733 | -73.68261 | 28320 ft | 394 kts | 51° |
| 2026-05-05 02:54 | 40.09323 | -73.65359 | 28759 ft | 393 kts | 51° |
| 2026-05-05 02:55 | 40.10889 | -73.62500 | 29187 ft | 391 kts | 51° |
| 2026-05-05 02:55 | 40.12456 | -73.59634 | 29622 ft | 390 kts | 51° |
| 2026-05-05 02:55 | 40.14041 | -73.56737 | 30052 ft | 388 kts | 51° |
| 2026-05-05 02:55 | 40.15529 | -73.54011 | 30443 ft | 387 kts | 51° |
| 2026-05-05 02:56 | 40.17100 | -73.51131 | 30862 ft | 385 kts | 51° |
| 2026-05-05 02:56 | 40.20278 | -73.45300 | 30977 ft | 402 kts | 50° |
| 2026-05-05 02:57 | 40.23602 | -73.39182 | 30974 ft | 419 kts | 51° |
| 2026-05-05 02:57 | 40.27366 | -73.33246 | 30975 ft | 427 kts | 45° |
| 2026-05-05 02:58 | 40.31246 | -73.27380 | 30969 ft | 434 kts | 44° |
| 2026-05-05 02:58 | 40.35898 | -73.22441 | 30976 ft | 430 kts | 26° |
| 2026-05-05 02:59 | 40.41185 | -73.18621 | 30967 ft | 434 kts | 26° |
| 2026-05-05 02:59 | 40.46534 | -73.14661 | 30965 ft | 438 kts | 26° |
| 2026-05-05 03:00 | 40.51885 | -73.10683 | 30964 ft | 437 kts | 26° |
| 2026-05-05 03:00 | 40.57154 | -73.06757 | 30959 ft | 432 kts | 26° |
| 2026-05-05 03:01 | 40.62407 | -73.02837 | 30959 ft | 426 kts | 26° |
| 2026-05-05 03:01 | 40.67570 | -72.98977 | 30962 ft | 422 kts | 25° |
| 2026-05-05 03:02 | 40.72693 | -72.95140 | 30960 ft | 418 kts | 25° |
| 2026-05-05 03:02 | 40.77735 | -72.91357 | 30959 ft | 415 kts | 25° |
| 2026-05-05 03:03 | 40.82780 | -72.87566 | 30960 ft | 412 kts | 25° |
| 2026-05-05 03:03 | 40.87785 | -72.83798 | 30962 ft | 410 kts | 25° |
| 2026-05-05 03:04 | 40.92764 | -72.79914 | 30959 ft | 411 kts | 31° |
| 2026-05-05 03:04 | 40.97076 | -72.74800 | 30960 ft | 415 kts | 38° |
| 2026-05-05 03:05 | 41.01343 | -72.69478 | 30961 ft | 413 kts | 38° |
| 2026-05-05 03:05 | 41.05537 | -72.64249 | 30964 ft | 412 kts | 38° |
| 2026-05-05 03:06 | 41.09736 | -72.59004 | 30959 ft | 412 kts | 38° |
| 2026-05-05 03:06 | 41.13849 | -72.53859 | 30971 ft | 411 kts | 38° |
| 2026-05-05 03:07 | 41.17862 | -72.48830 | 30967 ft | 417 kts | 38° |
| 2026-05-05 03:07 | 41.22183 | -72.43404 | 30969 ft | 426 kts | 38° |
| 2026-05-05 03:08 | 41.26542 | -72.37920 | 30963 ft | 433 kts | 38° |
| 2026-05-05 03:08 | 41.30891 | -72.32438 | 30957 ft | 439 kts | 38° |
| 2026-05-05 03:09 | 41.35379 | -72.26769 | 30956 ft | 444 kts | 38° |
| 2026-05-05 03:09 | 41.39910 | -72.21035 | 30951 ft | 449 kts | 38° |
| 2026-05-05 03:10 | 41.44457 | -72.15270 | 30951 ft | 453 kts | 39° |
| 2026-05-05 03:10 | 41.49059 | -72.09422 | 30949 ft | 456 kts | 39° |
| 2026-05-05 03:11 | 41.53653 | -72.03572 | 30949 ft | 456 kts | 39° |
| 2026-05-05 03:11 | 41.58264 | -71.97688 | 30946 ft | 454 kts | 39° |
| 2026-05-05 03:12 | 41.62828 | -71.91853 | 30947 ft | 453 kts | 38° |
| 2026-05-05 03:12 | 41.67378 | -71.86023 | 30949 ft | 452 kts | 38° |
| 2026-05-05 03:13 | 41.71945 | -71.80160 | 30949 ft | 451 kts | 38° |
| 2026-05-05 03:13 | 41.76482 | -71.74323 | 30948 ft | 450 kts | 38° |
| 2026-05-05 03:14 | 41.81008 | -71.68488 | 30953 ft | 450 kts | 38° |
| 2026-05-05 03:14 | 41.85050 | -71.62054 | 30952 ft | 459 kts | 53° |
| 2026-05-05 03:15 | 41.87917 | -71.54289 | 30956 ft | 463 kts | 59° |
| 2026-05-05 03:15 | 41.90697 | -71.46524 | 30953 ft | 463 kts | 59° |
| 2026-05-05 03:16 | 41.93454 | -71.38839 | 30948 ft | 463 kts | 59° |
| 2026-05-05 03:16 | 41.96267 | -71.30981 | 30938 ft | 463 kts | 59° |
| 2026-05-05 03:17 | 41.99037 | -71.23220 | 30937 ft | 462 kts | 60° |
| 2026-05-05 03:17 | 42.01824 | -71.15391 | 30925 ft | 462 kts | 59° |
| 2026-05-05 03:18 | 42.04578 | -71.07632 | 30926 ft | 461 kts | 59° |
| 2026-05-05 03:18 | 42.07516 | -70.99982 | 30925 ft | 454 kts | 51° |
| 2026-05-05 03:19 | 42.14055 | -70.91334 | 30926 ft | 436 kts | 28° |
| 2026-05-05 03:19 | 42.19506 | -70.87994 | 30933 ft | 422 kts | 9° |
| 2026-05-05 03:20 | 42.25164 | -70.85874 | 30927 ft | 425 kts | 12° |
| 2026-05-05 03:20 | 42.30743 | -70.83216 | 30922 ft | 426 kts | 14° |
| 2026-05-05 03:21 | 42.33557 | -70.81933 | 30375 ft | 426 kts | 13° |
| 2026-05-05 03:21 | 42.36377 | -70.80639 | 29751 ft | 426 kts | 13° |
| 2026-05-05 03:21 | 42.39178 | -70.79347 | 28940 ft | 426 kts | 13° |
| 2026-05-05 03:21 | 42.41990 | -70.78047 | 28157 ft | 425 kts | 13° |
| 2026-05-05 03:22 | 42.44782 | -70.76710 | 27622 ft | 427 kts | 16° |
| 2026-05-05 03:22 | 42.47544 | -70.75153 | 27094 ft | 430 kts | 17° |
| 2026-05-05 03:22 | 42.49981 | -70.73804 | 26629 ft | 432 kts | 17° |
| 2026-05-05 03:22 | 42.52781 | -70.72261 | 26102 ft | 434 kts | 16° |
| 2026-05-05 03:23 | 42.55585 | -70.70719 | 25543 ft | 436 kts | 17° |
| 2026-05-05 03:23 | 42.58398 | -70.69172 | 24933 ft | 440 kts | 17° |
| 2026-05-05 03:23 | 42.61238 | -70.67609 | 24333 ft | 441 kts | 17° |
| 2026-05-05 03:23 | 42.64096 | -70.66032 | 23734 ft | 441 kts | 17° |
| 2026-05-05 03:24 | 42.66956 | -70.64455 | 23142 ft | 440 kts | 17° |
| 2026-05-05 03:24 | 42.69745 | -70.62766 | 22550 ft | 441 kts | 20° |
| 2026-05-05 03:24 | 42.72490 | -70.61036 | 21970 ft | 439 kts | 19° |
| 2026-05-05 03:24 | 42.75277 | -70.59283 | 21355 ft | 433 kts | 19° |
| 2026-05-05 03:25 | 42.77970 | -70.57588 | 20743 ft | 428 kts | 19° |
| 2026-05-05 03:25 | 42.80659 | -70.55896 | 20124 ft | 423 kts | 19° |
| 2026-05-05 03:25 | 42.83337 | -70.54209 | 19519 ft | 418 kts | 19° |
| 2026-05-05 03:25 | 42.85977 | -70.52544 | 18906 ft | 414 kts | 19° |
| 2026-05-05 03:26 | 42.88608 | -70.50883 | 18298 ft | 411 kts | 19° |
| 2026-05-05 03:26 | 42.91201 | -70.49246 | 17702 ft | 407 kts | 19° |
| 2026-05-05 03:26 | 42.93749 | -70.47633 | 17061 ft | 402 kts | 19° |
| 2026-05-05 03:26 | 42.96270 | -70.46038 | 16421 ft | 396 kts | 19° |
| 2026-05-05 03:27 | 42.98753 | -70.44465 | 15780 ft | 392 kts | 20° |
| 2026-05-05 03:27 | 43.01214 | -70.42905 | 15143 ft | 387 kts | 20° |
| 2026-05-05 03:27 | 43.03538 | -70.41099 | 14482 ft | 387 kts | 29° |
| 2026-05-05 03:27 | 43.05899 | -70.39481 | 14083 ft | 377 kts | 13° |
| 2026-05-05 03:28 | 43.08383 | -70.38212 | 13725 ft | 383 kts | 21° |
| 2026-05-05 03:28 | 43.10596 | -70.36216 | 13093 ft | 383 kts | 33° |
| 2026-05-05 03:28 | 43.12722 | -70.33955 | 12331 ft | 381 kts | 35° |
| 2026-05-05 03:28 | 43.14787 | -70.31683 | 11586 ft | 377 kts | 36° |
| 2026-05-05 03:29 | 43.16846 | -70.29533 | 10929 ft | 367 kts | 30° |
| 2026-05-05 03:29 | 43.18969 | -70.27680 | 10433 ft | 356 kts | 29° |
| 2026-05-05 03:29 | 43.21041 | -70.25858 | 9916 ft | 347 kts | 29° |
| 2026-05-05 03:29 | 43.23031 | -70.24109 | 9415 ft | 340 kts | 29° |
| 2026-05-05 03:30 | 43.25019 | -70.22360 | 8864 ft | 334 kts | 28° |
| 2026-05-05 03:30 | 43.26947 | -70.20699 | 8159 ft | 320 kts | 28° |
| 2026-05-05 03:30 | 43.28760 | -70.19133 | 7605 ft | 298 kts | 28° |
| 2026-05-05 03:30 | 43.30451 | -70.17674 | 7090 ft | 282 kts | 27° |
| 2026-05-05 03:31 | 43.32104 | -70.16253 | 6655 ft | 280 kts | 27° |
| 2026-05-05 03:31 | 43.33804 | -70.14852 | 6272 ft | 276 kts | 25° |
| 2026-05-05 03:31 | 43.35498 | -70.13532 | 5877 ft | 274 kts | 24° |
| 2026-05-05 03:31 | 43.37189 | -70.12288 | 5481 ft | 271 kts | 23° |
| 2026-05-05 03:32 | 43.38892 | -70.11107 | 5093 ft | 269 kts | 21° |
| 2026-05-05 03:32 | 43.40620 | -70.09983 | 4700 ft | 268 kts | 20° |
| 2026-05-05 03:32 | 43.42325 | -70.08946 | 4315 ft | 267 kts | 19° |
| 2026-05-05 03:32 | 43.44075 | -70.07951 | 3932 ft | 266 kts | 17° |
| 2026-05-05 03:33 | 43.45801 | -70.07040 | 3544 ft | 265 kts | 15° |
| 2026-05-05 03:33 | 43.47588 | -70.06330 | 3166 ft | 268 kts | 2° |
| 2026-05-05 03:33 | 43.49429 | -70.06088 | 3044 ft | 266 kts | 359° |
| 2026-05-05 03:33 | 43.51259 | -70.05939 | 3036 ft | 265 kts | 358° |
| 2026-05-05 03:34 | 43.53114 | -70.05814 | 3036 ft | 264 kts | 357° |
| 2026-05-05 03:34 | 43.54953 | -70.05695 | 3035 ft | 264 kts | 356° |
| 2026-05-05 03:34 | 43.56785 | -70.05582 | 3045 ft | 263 kts | 356° |
| 2026-05-05 03:34 | 43.58611 | -70.05470 | 3037 ft | 263 kts | 357° |
| 2026-05-05 03:35 | 43.60475 | -70.05356 | 3035 ft | 263 kts | 357° |
| 2026-05-05 03:35 | 43.62301 | -70.05398 | 3019 ft | 255 kts | 341° |
| 2026-05-05 03:35 | 43.63782 | -70.06489 | 3037 ft | 238 kts | 308° |
| 2026-05-05 03:35 | 43.64507 | -70.08418 | 3043 ft | 225 kts | 275° |
| 2026-05-05 03:36 | 43.64298 | -70.10504 | 2798 ft | 221 kts | 243° |
| 2026-05-05 03:36 | 43.63434 | -70.12235 | 2665 ft | 207 kts | 246° |
| 2026-05-05 03:36 | 43.63335 | -70.14118 | 2514 ft | 203 kts | 278° |
| 2026-05-05 03:36 | 43.63525 | -70.16062 | 2117 ft | 204 kts | 267° |
| 2026-05-05 03:37 | 43.63596 | -70.18041 | 1796 ft | 205 kts | 271° |
| 2026-05-05 03:37 | 43.63722 | -70.19939 | 1515 ft | 187 kts | 271° |
| 2026-05-05 03:37 | 43.63836 | -70.21603 | 1247 ft | 162 kts | 271° |
| 2026-05-05 03:37 | 43.63935 | -70.23024 | 1049 ft | 133 kts | 271° |
| 2026-05-05 03:38 | 43.64013 | -70.24178 | 861 ft | 117 kts | 270° |
| 2026-05-05 03:38 | 43.64097 | -70.25333 | 727 ft | 124 kts | 272° |
| 2026-05-05 03:38 | 43.64182 | -70.26548 | 560 ft | 128 kts | 270° |
| 2026-05-05 03:38 | 43.64255 | -70.27772 | 355 ft | 128 kts | 271° |
| 2026-05-05 03:39 | 43.64338 | -70.28979 | 192 ft | 125 kts | 272° |
| 2026-05-05 03:39 | 43.64423 | -70.30205 | 51 ft | 126 kts | 272° |
| 2026-05-05 03:39 | 43.64487 | -70.31136 | 61 ft | 62 kts | 274° |
| 2026-05-05 03:39 | 43.64512 | -70.31486 | 66 ft | 14 kts | 276° |
| 2026-05-05 03:40 | 43.64558 | -70.31583 | 67 ft | 12 kts | 351° |
| 2026-05-05 03:40 | 43.64632 | -70.31521 | 67 ft | 13 kts | 45° |
| 2026-05-05 03:40 | 43.64702 | -70.31421 | 66 ft | 12 kts | 54° |
| 2026-05-05 03:40 | 43.64706 | -70.31413 | 66 ft | 0 kts | 53° |